LIRA/CIA METAR and TAF weather

Enter ICAO airport designator
Station Type Date Time Source
LIRA METAR 2019/06/26 15:50 UTC NOAA

LIRA 261550Z 23005KT 190V270 9999 FEW025 31/15 Q1019


Station Type Date Time Source
LIRA Decoded METAR 2019/06/26 15:50 UTC NOAA

Roma / Ciampino, Italy (LIRA) 41-47N 012-35E 105M
Jun 26, 2019 - 11:50 AM EDT / 2019.06.26 1550 UTC
Wind: from the SW (230 degrees) at 6 MPH (5 KT) (direction variable):0
Visibility: greater than 7 mile(s):0
Sky conditions: mostly clear
Temperature: 87 F (31 C)
Dew Point: 59 F (15 C)
Relative Humidity: 37%
Pressure (altimeter): 30.09 in. Hg (1019 hPa)
ob: LIRA 261550Z 23005KT 190V270 9999 FEW025 31/15 Q1019
cycle: 16

Station Type Date Time Source
LIRA TAF 2019/06/26 12:21 UTC NOAA

TAF LIRA 261100Z 2612/2712 25010KT CAVOK PROB40
TEMPO 2613/2616 SHRA
BECMG 2616/2618 VRB04KT

Example: see airport list